createdAt,value
2019-05-09T00:00:53.492Z,74.16
2019-05-09T00:03:24.140Z,74.11
2019-05-09T00:05:54.275Z,74.38
2019-05-09T00:08:23.834Z,74.43
2019-05-09T00:10:53.598Z,74.20
2019-05-09T00:13:23.740Z,74.21
2019-05-09T00:15:54.162Z,74.29
2019-05-09T00:18:23.882Z,74.30
2019-05-09T00:21:09.002Z,74.16
2019-05-09T00:23:38.510Z,74.10
2019-05-09T00:26:07.981Z,74.28
2019-05-09T00:28:39.643Z,74.56
2019-05-09T00:31:15.826Z,74.79
2019-05-09T00:33:49.798Z,74.99
2019-05-09T00:36:19.329Z,75.11
2019-05-09T00:38:48.819Z,75.22
2019-05-09T00:41:18.351Z,75.25
2019-05-09T00:43:54.401Z,75.18
2019-05-09T00:46:30.241Z,75.00
2019-05-09T00:49:16.336Z,74.73
2019-05-09T00:51:45.804Z,74.71
2019-05-09T00:54:15.280Z,74.84
2019-05-09T00:56:44.747Z,74.96
2019-05-09T00:59:14.338Z,74.92
2019-05-09T01:01:43.847Z,74.77
2019-05-09T01:04:13.797Z,74.74
2019-05-09T01:06:43.533Z,74.86
2019-05-09T01:09:13.757Z,74.67
2019-05-09T01:11:44.097Z,74.60
2019-05-09T01:14:14.292Z,74.67
2019-05-09T01:16:44.131Z,74.97
2019-05-09T01:19:14.234Z,75.04
2019-05-09T01:21:44.005Z,74.88
2019-05-09T01:24:14.023Z,74.93
2019-05-09T01:26:43.716Z,75.03
2019-05-09T01:29:13.916Z,75.16
2019-05-09T01:31:43.739Z,75.42
2019-05-09T01:34:20.501Z,75.25
2019-05-09T01:37:10.249Z,75.23
2019-05-09T01:39:39.730Z,75.37
2019-05-09T01:42:09.302Z,75.73
2019-05-09T01:44:38.800Z,75.79
2019-05-09T01:47:08.296Z,75.83
2019-05-09T01:49:37.742Z,75.94
2019-05-09T01:52:07.248Z,75.93
2019-05-09T01:54:38.610Z,76.06
2019-05-09T01:57:08.089Z,76.14
2019-05-09T01:59:37.547Z,75.88
2019-05-09T02:02:08.797Z,75.93
2019-05-09T02:04:38.615Z,75.83
2019-05-09T02:07:08.066Z,75.71
2019-05-09T02:09:37.554Z,75.76
2019-05-09T02:12:07.022Z,76.28
2019-05-09T02:14:43.809Z,76.22
2019-05-09T02:17:38.358Z,76.00
2019-05-09T02:20:08.436Z,76.14
2019-05-09T02:22:37.905Z,76.00
2019-05-09T02:25:08.059Z,76.03
2019-05-09T02:27:37.495Z,75.87
2019-05-09T02:30:08.070Z,75.83
2019-05-09T02:32:37.511Z,75.70
2019-05-09T02:35:07.895Z,75.53
2019-05-09T02:37:38.996Z,75.58
2019-05-09T02:40:10.514Z,75.48
2019-05-09T02:42:40.311Z,75.42
2019-05-09T02:45:10.471Z,75.39
2019-05-09T02:47:40.379Z,75.42
2019-05-09T02:50:11.249Z,75.55
2019-05-09T02:52:40.741Z,75.58
2019-05-09T02:55:10.801Z,75.42
2019-05-09T02:57:40.586Z,75.23
2019-05-09T03:00:28.884Z,75.14
2019-05-09T03:03:20.175Z,75.09
2019-05-09T03:05:49.843Z,75.08
2019-05-09T03:08:19.600Z,74.93
2019-05-09T03:10:49.443Z,74.88
2019-05-09T03:13:19.412Z,74.72
2019-05-09T03:15:50.970Z,74.57
2019-05-09T03:18:20.454Z,74.27
2019-05-09T03:21:15.280Z,74.27
2019-05-09T03:23:44.789Z,74.20
2019-05-09T03:26:19.343Z,74.44
2019-05-09T03:29:08.835Z,74.35
2019-05-09T03:31:39.649Z,74.75
2019-05-09T03:34:09.773Z,74.61
2019-05-09T03:36:39.418Z,74.04
2019-05-09T03:39:09.214Z,73.96
2019-05-09T03:41:39.509Z,73.49
2019-05-09T03:44:09.114Z,73.31
2019-05-09T03:46:48.832Z,72.81
2019-05-09T03:49:18.377Z,72.96
2019-05-09T03:51:48.242Z,73.22
2019-05-09T03:54:18.478Z,73.40
2019-05-09T03:56:53.115Z,73.25
2019-05-09T03:59:22.590Z,72.83
2019-05-09T04:01:52.048Z,72.86
2019-05-09T04:04:21.528Z,72.54
2019-05-09T04:06:51.018Z,72.54
2019-05-09T04:09:20.510Z,72.38
2019-05-09T04:11:49.969Z,72.38
2019-05-09T04:14:23.373Z,72.28
2019-05-09T04:16:52.845Z,72.22
2019-05-09T04:19:22.331Z,72.21
2019-05-09T04:21:51.793Z,72.00
2019-05-09T04:24:22.080Z,71.54
2019-05-09T04:26:57.618Z,71.19
2019-05-09T04:29:28.552Z,71.23
2019-05-09T04:31:58.205Z,70.82
2019-05-09T04:34:27.721Z,70.61
2019-05-09T04:36:57.746Z,70.35
2019-05-09T04:39:28.285Z,69.83
2019-05-09T04:42:03.733Z,69.37
2019-05-09T04:44:34.724Z,69.26
2019-05-09T04:47:04.216Z,66.71
2019-05-09T04:49:39.649Z,62.38
2019-05-09T04:52:04.929Z,59.72
2019-05-09T04:54:34.375Z,56.77
2019-05-09T04:57:03.829Z,54.17
2019-05-09T04:59:33.322Z,51.61
2019-05-09T05:02:21.845Z,49.81
2019-05-09T05:04:51.357Z,47.88
2019-05-09T05:07:20.832Z,46.58
2019-05-09T05:09:50.287Z,45.42
2019-05-09T05:12:19.784Z,44.85
2019-05-09T05:14:49.255Z,43.90
2019-05-09T05:17:18.735Z,43.18
2019-05-09T05:19:49.009Z,43.18
2019-05-09T05:22:42.788Z,43.75
2019-05-09T05:25:12.276Z,43.45
2019-05-09T05:27:41.761Z,42.92
2019-05-09T05:30:12.089Z,43.30
2019-05-09T05:32:57.850Z,43.31
2019-05-09T05:35:34.137Z,44.26
2019-05-09T05:38:03.654Z,45.32
2019-05-09T05:40:34.022Z,46.71
2019-05-09T05:43:03.613Z,47.06
2019-05-09T05:45:37.608Z,47.11
2019-05-09T05:48:17.380Z,47.44
2019-05-09T05:50:48.523Z,47.58
2019-05-09T05:53:18.269Z,47.87
2019-05-09T05:55:52.076Z,48.06
2019-05-09T05:58:20.356Z,47.97
2019-05-09T06:00:49.873Z,48.94
2019-05-09T06:03:19.400Z,48.86
2019-05-09T06:05:51.700Z,48.64
2019-05-09T06:08:20.071Z,49.09
2019-05-09T06:10:49.579Z,49.12
2019-05-09T06:13:19.058Z,49.24
2019-05-09T06:15:48.570Z,49.50
2019-05-09T06:18:18.532Z,49.64
2019-05-09T06:20:48.652Z,49.45
2019-05-09T06:23:18.327Z,49.28
2019-05-09T06:25:48.505Z,48.67
2019-05-09T06:28:18.425Z,48.34
2019-05-09T06:30:47.934Z,48.58
2019-05-09T06:33:18.049Z,49.00
2019-05-09T06:35:48.213Z,49.25
2019-05-09T06:38:19.001Z,49.03
2019-05-09T06:40:48.497Z,48.61
2019-05-09T06:43:24.261Z,48.28
2019-05-09T06:46:11.722Z,48.26
2019-05-09T06:48:41.241Z,47.84
2019-05-09T06:51:10.698Z,48.15
2019-05-09T06:53:40.228Z,48.12
2019-05-09T06:56:09.715Z,48.12
2019-05-09T06:58:39.211Z,47.97
2019-05-09T07:01:24.754Z,48.03
2019-05-09T07:03:58.331Z,47.39
2019-05-09T07:06:32.427Z,47.78
2019-05-09T07:09:33.294Z,47.78
2019-05-09T07:12:02.876Z,47.61
2019-05-09T07:14:37.902Z,47.48
2019-05-09T07:17:07.923Z,46.64
2019-05-09T07:19:38.247Z,45.94
2019-05-09T07:22:39.457Z,45.98
2019-05-09T07:25:37.864Z,45.65
2019-05-09T07:28:07.774Z,45.34
2019-05-09T07:30:48.102Z,46.05
2019-05-09T07:33:23.790Z,46.66
2019-05-09T07:35:53.359Z,46.72
2019-05-09T07:38:29.707Z,46.65
2019-05-09T07:41:00.124Z,45.87
2019-05-09T07:43:31.842Z,45.41
2019-05-09T07:46:05.749Z,45.53
2019-05-09T07:48:38.062Z,45.25
2019-05-09T07:51:08.060Z,45.04
2019-05-09T07:53:38.187Z,44.52
2019-05-09T07:56:08.194Z,44.49
2019-05-09T07:58:37.933Z,44.37
2019-05-09T08:01:08.464Z,43.98
2019-05-09T08:03:38.711Z,43.77
2019-05-09T08:06:09.001Z,43.92
2019-05-09T08:08:38.822Z,43.44
2019-05-09T08:11:09.193Z,43.85
2019-05-09T08:13:39.490Z,43.79
2019-05-09T08:16:14.181Z,43.30
2019-05-09T08:18:41.955Z,42.99
2019-05-09T08:21:11.485Z,42.93
2019-05-09T08:23:40.945Z,42.83
2019-05-09T08:26:10.486Z,42.82
2019-05-09T08:28:42.105Z,43.08
2019-05-09T08:31:11.688Z,43.05
2019-05-09T08:33:41.236Z,43.19
2019-05-09T08:36:10.836Z,43.62
2019-05-09T08:38:40.658Z,43.27
2019-05-09T08:41:11.352Z,42.72
2019-05-09T08:43:41.862Z,42.62
2019-05-09T08:46:12.762Z,43.04
2019-05-09T08:48:42.348Z,42.62
2019-05-09T08:51:20.141Z,42.26
2019-05-09T08:53:49.967Z,42.58
2019-05-09T08:56:19.510Z,42.21
2019-05-09T08:58:48.979Z,40.81
2019-05-09T09:01:30.742Z,40.89
2019-05-09T09:03:50.160Z,41.14
2019-05-09T09:06:19.744Z,41.17
2019-05-09T09:08:49.225Z,41.41
2019-05-09T09:11:19.122Z,42.14
2019-05-09T09:13:48.963Z,42.54
2019-05-09T09:16:22.279Z,42.68
2019-05-09T09:18:49.707Z,41.63
2019-05-09T09:21:19.262Z,41.10
2019-05-09T09:23:50.732Z,41.00
2019-05-09T09:26:20.000Z,40.89
2019-05-09T09:28:49.501Z,40.70
2019-05-09T09:31:19.026Z,41.58
2019-05-09T09:33:48.505Z,41.29
2019-05-09T09:36:18.149Z,41.45
2019-05-09T09:38:48.508Z,41.29
2019-05-09T09:41:20.584Z,40.68
2019-05-09T09:43:50.115Z,40.73
2019-05-09T09:46:19.643Z,40.75
2019-05-09T09:48:49.197Z,41.50
2019-05-09T09:51:18.917Z,41.44
2019-05-09T09:53:49.086Z,41.44
2019-05-09T09:56:22.283Z,41.74
2019-05-09T09:58:58.876Z,41.60
2019-05-09T10:01:30.517Z,41.62
2019-05-09T10:04:24.036Z,41.73
2019-05-09T10:06:52.987Z,41.84
2019-05-09T10:09:20.999Z,42.08
2019-05-09T10:11:50.573Z,41.79
2019-05-09T10:14:28.411Z,41.35
2019-05-09T10:17:17.947Z,41.66
2019-05-09T10:19:51.979Z,41.65
2019-05-09T10:22:25.447Z,41.44
2019-05-09T10:24:54.425Z,41.12
2019-05-09T10:27:23.953Z,40.63
2019-05-09T10:29:53.466Z,40.57
2019-05-09T10:32:23.019Z,40.33
2019-05-09T10:34:52.566Z,40.46
2019-05-09T10:37:22.079Z,40.88
2019-05-09T10:39:51.545Z,40.90
2019-05-09T10:42:28.705Z,40.86
2019-05-09T10:45:09.132Z,40.38
2019-05-09T10:47:38.676Z,40.34
2019-05-09T10:50:08.735Z,39.74
2019-05-09T10:52:38.279Z,39.96
2019-05-09T10:55:09.048Z,40.32
2019-05-09T10:57:42.417Z,40.37
2019-05-09T11:00:10.426Z,40.88
2019-05-09T11:02:40.169Z,40.61
2019-05-09T11:05:11.219Z,40.47
2019-05-09T11:07:40.760Z,40.13
2019-05-09T11:10:24.548Z,40.13
2019-05-09T11:12:41.591Z,40.15
2019-05-09T11:15:11.177Z,40.33
2019-05-09T11:17:42.062Z,40.82
2019-05-09T11:20:14.539Z,40.53
2019-05-09T11:22:44.039Z,40.75
2019-05-09T11:25:13.559Z,41.01
2019-05-09T11:27:43.073Z,40.47
2019-05-09T11:30:13.636Z,41.25
2019-05-09T11:32:43.150Z,41.19
2019-05-09T11:35:12.660Z,40.90
2019-05-09T11:37:42.185Z,41.37
2019-05-09T11:40:12.268Z,41.52
2019-05-09T11:42:41.742Z,41.69
2019-05-09T11:45:11.338Z,41.75
2019-05-09T11:47:46.217Z,42.33
2019-05-09T11:50:12.281Z,42.98
2019-05-09T11:52:44.699Z,43.79
2019-05-09T11:55:28.801Z,45.37
2019-05-09T11:57:48.346Z,45.93
2019-05-09T12:00:17.930Z,44.95
2019-05-09T12:02:49.860Z,44.72
2019-05-09T12:05:20.220Z,44.13
2019-05-09T12:07:52.634Z,45.31
2019-05-09T12:10:22.122Z,47.23
2019-05-09T12:12:51.617Z,48.55
2019-05-09T12:15:21.131Z,47.72
2019-05-09T12:17:58.480Z,49.08
2019-05-09T12:20:22.549Z,47.88
2019-05-09T12:22:52.126Z,47.61
2019-05-09T12:25:21.655Z,47.06
2019-05-09T12:27:51.223Z,47.31
2019-05-09T12:30:22.355Z,47.96
2019-05-09T12:32:51.897Z,48.15
2019-05-09T12:35:21.385Z,48.81
2019-05-09T12:37:55.139Z,48.64
2019-05-09T12:40:24.624Z,48.41
2019-05-09T12:42:54.715Z,48.72
2019-05-09T12:45:24.293Z,48.47
2019-05-09T12:48:06.302Z,47.92
2019-05-09T12:50:26.063Z,46.74
2019-05-09T12:52:57.495Z,46.72
2019-05-09T12:55:27.606Z,46.49
2019-05-09T12:57:59.487Z,46.01
2019-05-09T13:00:29.256Z,44.36
2019-05-09T13:02:59.467Z,45.07
2019-05-09T13:05:30.092Z,45.10
2019-05-09T13:07:59.960Z,44.15
2019-05-09T13:10:29.691Z,43.32
2019-05-09T13:12:59.522Z,43.43
2019-05-09T13:15:38.429Z,43.34
2019-05-09T13:18:21.385Z,45.15
2019-05-09T13:20:39.163Z,46.93
2019-05-09T13:23:08.948Z,47.91
2019-05-09T13:25:38.618Z,48.54
2019-05-09T13:28:08.417Z,49.40
2019-05-09T13:30:38.107Z,50.01
2019-05-09T13:33:10.793Z,49.62
2019-05-09T13:35:39.563Z,48.71
2019-05-09T13:38:10.107Z,48.61
2019-05-09T13:40:39.622Z,47.44
2019-05-09T13:43:09.128Z,46.50
2019-05-09T13:45:40.664Z,47.07
2019-05-09T13:48:26.444Z,47.38
2019-05-09T13:50:44.803Z,47.77
2019-05-09T13:53:14.419Z,47.65
2019-05-09T13:55:43.897Z,47.46
2019-05-09T13:58:15.471Z,47.03
2019-05-09T14:00:56.707Z,47.99
2019-05-09T14:03:18.074Z,48.29
2019-05-09T14:05:48.476Z,47.54
2019-05-09T14:08:19.266Z,48.08
2019-05-09T14:10:54.901Z,48.76
2019-05-09T14:13:24.347Z,48.67
2019-05-09T14:15:54.277Z,48.76
2019-05-09T14:18:24.574Z,48.51
2019-05-09T14:20:54.073Z,48.15
2019-05-09T14:23:24.046Z,48.26
2019-05-09T14:25:53.559Z,48.24
2019-05-09T14:28:23.919Z,47.21
2019-05-09T14:30:53.411Z,46.07
2019-05-09T14:33:24.950Z,46.09
2019-05-09T14:35:54.444Z,45.77
2019-05-09T14:38:28.408Z,46.50
2019-05-09T14:41:02.241Z,47.19
2019-05-09T14:43:31.749Z,47.65
2019-05-09T14:46:01.287Z,48.49
2019-05-09T14:48:32.739Z,48.99
2019-05-09T14:51:02.270Z,48.99
2019-05-09T14:53:32.177Z,49.23
2019-05-09T14:56:01.719Z,49.70
2019-05-09T14:58:31.235Z,49.38
2019-05-09T15:01:01.029Z,49.52
2019-05-09T15:03:30.582Z,49.38
2019-05-09T15:06:00.126Z,53.27
2019-05-09T15:08:29.604Z,54.21
2019-05-09T15:10:59.455Z,55.30
2019-05-09T15:13:28.918Z,56.40
2019-05-09T15:15:58.448Z,57.15
2019-05-09T15:18:28.304Z,57.83
2019-05-09T15:20:58.775Z,58.02
2019-05-09T15:23:29.324Z,58.16
2019-05-09T15:26:00.036Z,59.05
2019-05-09T15:28:29.909Z,59.52
2019-05-09T15:30:59.751Z,60.38
2019-05-09T15:33:31.668Z,61.48
2019-05-09T15:36:02.279Z,62.44
2019-05-09T15:38:32.078Z,63.35
2019-05-09T15:41:04.427Z,63.07
2019-05-09T15:43:34.446Z,64.04
2019-05-09T15:46:18.694Z,64.37
2019-05-09T15:48:48.287Z,64.78
2019-05-09T15:51:19.737Z,65.22
2019-05-09T15:53:49.567Z,66.58
2019-05-09T15:56:19.023Z,67.28
2019-05-09T15:58:49.148Z,67.95
2019-05-09T16:01:19.638Z,68.30
2019-05-09T16:03:49.430Z,68.77
2019-05-09T16:06:20.627Z,69.51
2019-05-09T16:08:52.570Z,69.36
2019-05-09T16:11:24.666Z,69.90
2019-05-09T16:13:54.582Z,70.23
2019-05-09T16:16:24.265Z,70.26
2019-05-09T16:18:54.160Z,71.14
2019-05-09T16:21:27.614Z,71.52
2019-05-09T16:23:59.232Z,72.63
2019-05-09T16:26:29.187Z,73.51
2019-05-09T16:28:58.878Z,73.00
2019-05-09T16:31:35.095Z,72.65
2019-05-09T16:34:04.583Z,74.61
2019-05-09T16:36:34.081Z,75.29
2019-05-09T16:39:07.443Z,75.69
2019-05-09T16:41:39.197Z,73.45
2019-05-09T16:44:09.555Z,72.21
2019-05-09T16:46:39.134Z,74.46
2019-05-09T16:49:11.774Z,75.83
2019-05-09T16:51:42.511Z,74.71
2019-05-09T16:54:12.404Z,73.83
2019-05-09T16:56:43.102Z,74.09
2019-05-09T16:59:12.581Z,75.21
2019-05-09T17:01:47.661Z,75.78
2019-05-09T17:04:19.204Z,77.62
2019-05-09T17:07:08.405Z,78.42
2019-05-09T17:10:17.736Z,78.91
2019-05-09T17:12:47.844Z,79.56
2019-05-09T17:15:20.715Z,79.56
2019-05-09T17:17:52.575Z,79.73
2019-05-09T17:20:29.289Z,78.96
2019-05-09T17:23:15.013Z,77.78
2019-05-09T17:25:43.585Z,77.20
2019-05-09T17:28:13.098Z,76.02
2019-05-09T17:30:49.022Z,77.17
2019-05-09T17:33:22.413Z,78.79
2019-05-09T17:35:53.552Z,79.14
2019-05-09T17:38:23.322Z,80.15
2019-05-09T17:40:53.865Z,80.48
2019-05-09T17:43:27.793Z,81.27
2019-05-09T17:45:58.409Z,80.89
2019-05-09T17:48:28.863Z,80.22
2019-05-09T17:51:05.308Z,80.94
2019-05-09T17:53:35.137Z,81.28
2019-05-09T17:56:04.974Z,80.58
2019-05-09T17:58:37.833Z,79.87
2019-05-09T18:01:09.933Z,80.07
2019-05-09T18:03:40.415Z,79.31
2019-05-09T18:06:09.949Z,81.07
2019-05-09T18:08:40.730Z,80.57
2019-05-09T18:11:17.452Z,80.02
2019-05-09T18:13:48.113Z,79.71
2019-05-09T18:16:19.027Z,80.04
2019-05-09T18:18:50.248Z,80.85
2019-05-09T18:21:24.444Z,81.17
2019-05-09T18:23:55.529Z,82.48
2019-05-09T18:26:27.502Z,83.07
2019-05-09T18:29:09.276Z,83.44
2019-05-09T18:31:52.275Z,83.53
2019-05-09T18:34:24.836Z,84.60
2019-05-09T18:36:58.763Z,84.86
2019-05-09T18:39:27.928Z,84.78
2019-05-09T18:41:57.839Z,84.37
2019-05-09T18:44:35.090Z,84.86
2019-05-09T18:47:07.804Z,84.39
2019-05-09T18:49:37.984Z,84.28
2019-05-09T18:52:07.473Z,84.30
2019-05-09T18:54:41.231Z,84.66
2019-05-09T18:57:10.822Z,84.83
2019-05-09T18:59:40.330Z,85.05
2019-05-09T19:02:12.378Z,84.99
2019-05-09T19:04:46.335Z,84.77
2019-05-09T19:07:22.299Z,85.08
2019-05-09T19:09:49.404Z,85.28
2019-05-09T19:12:20.920Z,85.17
2019-05-09T19:14:54.249Z,84.83
2019-05-09T19:17:41.630Z,85.58
2019-05-09T19:20:32.932Z,85.87
2019-05-09T19:23:07.700Z,86.26
2019-05-09T19:25:37.167Z,86.05
2019-05-09T19:28:07.006Z,86.52
2019-05-09T19:30:36.502Z,86.94
2019-05-09T19:33:06.654Z,87.18
2019-05-09T19:35:37.444Z,86.75
2019-05-09T19:38:09.031Z,87.56
2019-05-09T19:40:42.871Z,87.48
2019-05-09T19:43:15.180Z,87.50
2019-05-09T19:45:45.100Z,87.93
2019-05-09T19:48:14.589Z,87.61
2019-05-09T19:50:44.830Z,87.37
2019-05-09T19:53:15.457Z,86.85
2019-05-09T19:55:47.934Z,86.55
2019-05-09T19:58:20.537Z,85.94
2019-05-09T20:00:51.820Z,85.09
2019-05-09T20:03:24.165Z,85.30
2019-05-09T20:06:03.056Z,85.60
2019-05-09T20:08:34.392Z,86.06
2019-05-09T20:11:25.961Z,86.69
2019-05-09T20:14:30.569Z,86.91
2019-05-09T20:17:02.266Z,87.43
2019-05-09T20:19:32.191Z,87.56
2019-05-09T20:22:03.734Z,87.74
2019-05-09T20:24:55.146Z,88.11
2019-05-09T20:27:28.347Z,88.16
2019-05-09T20:29:59.748Z,87.53
2019-05-09T20:32:32.348Z,87.19
2019-05-09T20:35:02.230Z,86.72
2019-05-09T20:37:33.639Z,86.43
2019-05-09T20:40:05.374Z,85.94
2019-05-09T20:42:35.094Z,85.94
2019-05-09T20:45:05.445Z,86.18
2019-05-09T20:47:43.954Z,86.29
2019-05-09T20:50:16.691Z,86.28
2019-05-09T20:52:51.022Z,86.60
2019-05-09T20:55:23.964Z,86.52
2019-05-09T20:57:56.035Z,86.44
2019-05-09T21:00:26.374Z,86.55
2019-05-09T21:02:56.075Z,86.70
2019-05-09T21:05:26.099Z,86.78
2019-05-09T21:07:55.869Z,86.97
2019-05-09T21:10:25.535Z,87.26
2019-05-09T21:12:55.547Z,87.00
2019-05-09T21:15:26.113Z,86.79
2019-05-09T21:18:01.410Z,86.56
2019-05-09T21:20:31.078Z,86.42
2019-05-09T21:23:00.807Z,86.75
2019-05-09T21:25:33.247Z,87.02
2019-05-09T21:28:06.331Z,87.32
2019-05-09T21:30:35.979Z,87.71
2019-05-09T21:33:07.874Z,87.75
2019-05-09T21:35:38.617Z,88.00
2019-05-09T21:38:10.522Z,87.99
2019-05-09T21:40:42.079Z,87.86
2019-05-09T21:43:11.603Z,87.86
2019-05-09T21:45:41.139Z,87.92
2019-05-09T21:48:11.063Z,88.43
2019-05-09T21:50:40.865Z,88.66
2019-05-09T21:53:10.372Z,88.66
2019-05-09T21:55:41.140Z,88.74
2019-05-09T21:58:14.057Z,88.80
2019-05-09T22:00:46.458Z,89.27
2019-05-09T22:03:16.031Z,89.66
2019-05-09T22:05:51.626Z,89.72
2019-05-09T22:08:22.863Z,89.71
2019-05-09T22:10:52.629Z,89.45
2019-05-09T22:13:22.111Z,89.29
2019-05-09T22:15:51.636Z,89.18
2019-05-09T22:18:21.105Z,88.83
2019-05-09T22:20:51.140Z,88.71
2019-05-09T22:23:20.597Z,88.98
2019-05-09T22:25:50.992Z,89.29
2019-05-09T22:28:20.533Z,90.10
2019-05-09T22:30:50.095Z,90.47
2019-05-09T22:33:20.053Z,90.42
2019-05-09T22:35:49.552Z,90.50
2019-05-09T22:38:19.016Z,90.16
2019-05-09T22:40:48.487Z,90.27
2019-05-09T22:43:17.984Z,90.04
2019-05-09T22:45:47.450Z,89.95
2019-05-09T22:48:16.919Z,90.20
2019-05-09T22:50:46.385Z,90.41
2019-05-09T22:53:15.836Z,90.58
2019-05-09T22:55:45.396Z,90.13
2019-05-09T22:58:14.891Z,89.76
2019-05-09T23:00:44.456Z,89.60
2019-05-09T23:03:14.403Z,89.78
2019-05-09T23:05:43.891Z,89.74
2019-05-09T23:08:13.522Z,89.85
2019-05-09T23:10:42.989Z,90.37
2019-05-09T23:13:12.463Z,90.26
2019-05-09T23:15:41.947Z,89.73
2019-05-09T23:18:11.426Z,89.88
2019-05-09T23:20:52.729Z,90.30
2019-05-09T23:23:29.917Z,90.62
2019-05-09T23:25:59.483Z,90.90
2019-05-09T23:28:29.017Z,91.27
2019-05-09T23:31:00.774Z,91.13
2019-05-09T23:33:33.303Z,90.91
2019-05-09T23:36:02.772Z,90.89
2019-05-09T23:38:32.258Z,91.03
2019-05-09T23:41:01.716Z,90.73
2019-05-09T23:43:31.183Z,90.22
2019-05-09T23:46:00.706Z,90.77
2019-05-09T23:48:30.173Z,90.34
2019-05-09T23:50:59.622Z,90.25
2019-05-09T23:53:35.853Z,89.97
2019-05-09T23:56:22.961Z,90.25
2019-05-09T23:59:10.130Z,90.39
